Time;durP1;ratioP1;P1;durP2;ratioP2;P2;SDS_P1;SDS_P2;PMS_P1;PMS_P2;Temp;Humidity;BMP_temperature;BMP_pressure;BME280_temperature;BME280_humidity;BME280_pressure;Samples;Min_cycle;Max_cycle;Signal;HPM_P1;HPM_P2
2022/11/04 04:59:06;;;;;;;34.38;15.85;;;;;;;9.50;100.00;99916.81;5773011;28;20486;-87
2022/11/04 05:02:09;;;;;;;35.60;16.90;;;;;;;9.58;100.00;99908.69;5219378;34;34650;-87
2022/11/04 05:05:13;;;;;;;38.92;18.55;;;;;;;9.52;100.00;99901.34;5218529;34;34624;-87
2022/11/04 05:08:29;;;;;;;42.25;16.70;;;;;;;9.50;100.00;99892.63;5218828;34;33875;-87
2022/11/04 05:11:32;;;;;;;34.38;16.27;;;;;;;9.46;100.00;99907.47;5218493;34;34477;-87
2022/11/04 05:14:35;;;;;;;38.10;18.17;;;;;;;9.47;100.00;99919.88;5218842;34;34288;-87
2022/11/04 05:17:37;;;;;;;32.28;16.17;;;;;;;9.39;100.00;99915.44;5220467;34;34801;-87
2022/11/04 05:20:40;;;;;;;35.00;15.57;;;;;;;9.41;100.00;99920.59;5219818;34;33712;-87
2022/11/04 05:23:42;;;;;;;38.97;17.25;;;;;;;9.33;100.00;99924.22;5219180;34;34157;-87
2022/11/04 05:26:45;;;;;;;34.40;15.60;;;;;;;9.41;100.00;99928.66;5205242;34;32716;-87
2022/11/04 05:29:47;;;;;;;37.05;16.50;;;;;;;9.41;100.00;99924.13;5218611;34;33700;-87
2022/11/04 05:32:50;;;;;;;30.85;16.37;;;;;;;9.34;100.00;99930.41;5219569;34;34487;-87
2022/11/04 05:35:53;;;;;;;35.22;17.02;;;;;;;9.36;100.00;99925.66;5220606;34;33956;-87
2022/11/04 05:38:56;;;;;;;36.00;16.35;;;;;;;9.40;100.00;99922.47;5221106;34;33519;-87
2022/11/04 05:41:59;;;;;;;35.17;16.55;;;;;;;9.38;100.00;99929.84;5230316;34;34301;-87
2022/11/04 05:45:03;;;;;;;36.38;16.05;;;;;;;9.23;100.00;99928.97;5237643;34;33744;-87
2022/11/04 05:48:05;;;;;;;32.97;16.80;;;;;;;9.23;100.00;99912.88;5224859;34;32867;-91
2022/11/04 05:51:13;;;;;;;30.85;16.55;;;;;;;9.26;100.00;99902.59;5237780;34;33607;-91
2022/11/04 05:54:15;;;;;;;34.03;18.40;;;;;;;9.25;100.00;99909.00;5237973;34;34129;-91
2022/11/04 05:57:18;;;;;;;40.42;18.85;;;;;;;9.34;100.00;99901.69;5225981;34;32436;-87
2022/11/04 06:00:21;;;;;;;35.05;17.05;;;;;;;9.42;100.00;99909.69;5231852;34;34693;-87
2022/11/04 06:03:23;;;;;;;38.08;18.73;;;;;;;9.24;100.00;99912.69;5229021;34;34697;-88
2022/11/04 06:06:30;;;;;;;38.65;17.42;;;;;;;9.22;100.00;99917.41;5226774;34;34471;-87
2022/11/04 06:09:38;;;;;;;38.33;19.02;;;;;;;9.38;100.00;99924.47;5207783;34;32635;-87
2022/11/04 06:12:41;;;;;;;38.53;18.30;;;;;;;9.28;100.00;99924.75;5220770;34;34055;-87
2022/11/04 06:15:44;;;;;;;40.38;16.83;;;;;;;9.20;100.00;99926.66;5221222;34;34439;-88
2022/11/04 06:18:46;;;;;;;38.97;17.37;;;;;;;9.28;100.00;99931.97;5209673;34;32644;-87
2022/11/04 06:21:49;;;;;;;36.33;17.75;;;;;;;9.22;100.00;99930.00;5205153;34;33035;-87
2022/11/04 06:24:55;;;;;;;37.50;17.77;;;;;;;9.24;100.00;99927.94;5191575;34;32600;-85
2022/11/04 06:27:58;;;;;;;41.08;18.73;;;;;;;9.23;100.00;99927.13;5191023;34;33226;-87
2022/11/04 06:31:03;;;;;;;35.70;18.55;;;;;;;9.22;100.00;99927.31;5190457;34;32754;-87
2022/11/04 06:34:05;;;;;;;37.20;16.40;;;;;;;9.21;100.00;99926.47;5203416;34;33585;-87
2022/11/04 06:37:08;;;;;;;38.20;17.08;;;;;;;9.22;100.00;99938.91;5205998;34;34716;-87
2022/11/04 06:40:11;;;;;;;35.50;17.58;;;;;;;9.24;100.00;99941.38;5202873;34;34355;-87
2022/11/04 06:43:14;;;;;;;37.47;16.80;;;;;;;9.20;100.00;99946.28;5194554;34;33515;-87
2022/11/04 06:46:32;;;;;;;38.22;16.98;;;;;;;9.24;100.00;99938.69;5206413;34;34171;-87
2022/11/04 06:49:34;;;;;;;40.30;16.62;;;;;;;9.22;100.00;99943.44;5206725;34;33914;-87
2022/11/04 06:52:37;;;;;;;40.67;17.40;;;;;;;9.16;100.00;99933.41;5190108;34;32416;-87
2022/11/04 06:55:44;;;;;;;38.85;17.58;;;;;;;9.16;100.00;99942.31;5202649;34;34301;-87
2022/11/04 06:58:51;;;;;;;37.10;17.25;;;;;;;9.25;100.00;99937.69;5183469;34;207496;-87
2022/11/04 07:01:53;;;;;;;35.60;17.20;;;;;;;9.23;100.00;99927.13;5190112;34;33289;-87
2022/11/04 07:04:56;;;;;;;35.95;17.55;;;;;;;9.31;100.00;99929.75;5214316;34;34142;-87
2022/11/04 07:08:04;;;;;;;40.67;18.42;;;;;;;9.25;100.00;99918.91;5202059;34;33777;-87
2022/11/04 07:11:07;;;;;;;36.85;17.05;;;;;;;9.38;100.00;99934.41;5191496;34;31663;-87
2022/11/04 07:14:10;;;;;;;34.85;17.15;;;;;;;9.45;100.00;99930.00;5205801;34;34559;-87
2022/11/04 07:17:13;;;;;;;38.22;17.92;;;;;;;9.43;100.00;99934.69;5190237;34;32500;-87
2022/11/04 07:20:16;;;;;;;35.45;17.37;;;;;;;9.31;100.00;99935.13;5189456;34;32624;-87
2022/11/04 07:23:18;;;;;;;37.78;18.98;;;;;;;9.29;100.00;99929.09;5206252;34;33584;-87
2022/11/04 07:26:21;;;;;;;38.90;16.48;;;;;;;9.42;100.00;99933.00;5213804;34;34261;-87
2022/11/04 07:29:24;;;;;;;34.88;16.50;;;;;;;9.51;100.00;99929.25;5211070;34;34772;-87
2022/11/04 07:32:27;;;;;;;38.28;17.02;;;;;;;9.60;100.00;99944.28;5204496;34;34295;-87
2022/11/04 07:35:29;;;;;;;36.22;17.75;;;;;;;9.56;100.00;99934.91;5214954;34;34804;-87
2022/11/04 07:38:32;;;;;;;39.22;17.87;;;;;;;9.49;100.00;99937.47;5189382;34;32269;-87
2022/11/04 07:41:35;;;;;;;41.58;16.75;;;;;;;9.42;100.00;99930.31;5201921;34;34715;-87
2022/11/04 07:44:38;;;;;;;39.15;17.75;;;;;;;9.54;100.00;99920.81;5189810;34;33218;-87
2022/11/04 07:47:41;;;;;;;40.88;18.33;;;;;;;9.46;100.00;99928.97;5189089;34;34037;-90
2022/11/04 07:50:43;;;;;;;36.95;17.05;;;;;;;9.42;100.00;99923.13;5201210;34;34414;-92
2022/11/04 07:53:46;;;;;;;38.60;16.67;;;;;;;9.57;100.00;99920.47;5189284;34;32607;-91
2022/11/04 07:56:49;;;;;;;42.47;15.82;;;;;;;9.56;100.00;99917.94;5200368;34;34572;-91
2022/11/04 07:59:52;;;;;;;46.37;17.27;;;;;;;9.35;100.00;99914.09;5199626;34;34061;-88
2022/11/04 08:02:54;;;;;;;41.65;19.08;;;;;;;9.44;100.00;99912.19;5201506;34;34087;-87
2022/11/04 08:05:59;;;;;;;39.28;16.85;;;;;;;9.51;100.00;99905.91;5201490;34;34332;-87
2022/11/04 08:09:01;;;;;;;32.28;16.40;;;;;;;9.55;100.00;99890.25;5192955;34;33787;-86
2022/11/04 08:12:05;;;;;;;38.28;17.65;;;;;;;9.60;100.00;99887.84;5197764;34;34422;-86
2022/11/04 08:15:08;;;;;;;36.28;15.82;;;;;;;9.53;100.00;99894.94;5210573;34;34777;-87
2022/11/04 08:18:10;;;;;;;34.90;18.58;;;;;;;9.54;100.00;99888.59;5202529;34;33891;-86
2022/11/04 08:21:13;;;;;;;35.13;15.85;;;;;;;9.35;100.00;99881.84;5200263;34;33661;-87
2022/11/04 08:24:16;;;;;;;38.03;17.58;;;;;;;9.36;100.00;99878.19;5188629;34;32424;-87
2022/11/04 08:27:19;;;;;;;46.97;17.75;;;;;;;9.54;100.00;99880.53;5207175;34;34696;-86
2022/11/04 08:30:21;;;;;;;44.85;17.85;;;;;;;9.53;100.00;99886.87;5194159;34;32467;-87
2022/11/04 08:33:26;;;;;;;41.65;17.87;;;;;;;9.50;100.00;99895.31;5201862;34;33657;-86
2022/11/04 08:36:32;;;;;;;38.20;17.90;;;;;;;9.47;100.00;99888.44;5201959;34;34015;-86
2022/11/04 08:39:34;;;;;;;41.58;17.67;;;;;;;9.22;100.00;99885.19;5203834;34;34111;-86
2022/11/04 08:42:37;;;;;;;37.63;17.30;;;;;;;9.23;100.00;99877.94;5203042;34;34967;-86
2022/11/04 08:45:42;;;;;;;40.75;19.15;;;;;;;9.31;100.00;99888.63;5190235;34;32196;-86
2022/11/04 08:48:45;;;;;;;39.17;17.73;;;;;;;9.16;100.00;99880.53;5200806;34;34589;-85
2022/11/04 08:51:55;;;;;;;41.97;17.65;;;;;;;9.19;100.00;99873.97;5200451;34;34466;-84
2022/11/04 08:54:57;;;;;;;42.75;17.27;;;;;;;9.26;100.00;99872.22;5200128;34;33589;-86
2022/11/04 08:58:01;;;;;;;37.38;18.12;;;;;;;9.43;100.00;99864.84;5199875;34;34398;-84
2022/11/04 09:01:05;;;;;;;35.42;17.05;;;;;;;9.26;100.00;99866.84;5189960;34;32101;-85
2022/11/04 09:04:10;;;;;;;38.03;16.92;;;;;;;9.44;100.00;99874.56;5200626;34;33882;-85
2022/11/04 09:07:13;;;;;;;37.40;18.62;;;;;;;9.44;100.00;99866.50;5200683;34;33759;-85
2022/11/04 09:10:16;;;;;;;38.35;19.17;;;;;;;9.37;100.00;99863.72;5202016;34;33824;-85
2022/11/04 09:13:18;;;;;;;38.13;18.73;;;;;;;9.48;100.00;99863.28;5203538;34;34422;-86
2022/11/04 09:16:21;;;;;;;36.00;18.90;;;;;;;9.51;100.00;99852.16;5203418;34;33804;-86
2022/11/04 09:19:24;;;;;;;35.65;17.75;;;;;;;9.64;100.00;99848.00;5202818;34;34446;-86
2022/11/04 09:22:27;;;;;;;35.08;18.08;;;;;;;9.86;100.00;99843.56;5190460;34;32154;-86
2022/11/04 09:25:31;;;;;;;38.65;18.65;;;;;;;9.83;100.00;99839.38;5200964;34;33529;-86
2022/11/04 09:28:34;;;;;;;39.30;18.80;;;;;;;9.91;100.00;99844.62;5203573;34;35036;-86
2022/11/04 09:31:38;;;;;;;39.55;19.15;;;;;;;9.81;100.00;99837.91;5191211;34;33282;-86
2022/11/04 09:34:40;;;;;;;35.42;18.98;;;;;;;9.76;100.00;99838.44;5191488;34;32456;-86
2022/11/04 09:37:43;;;;;;;38.00;18.02;;;;;;;9.71;100.00;99836.31;5197080;34;33760;-85
2022/11/04 09:40:49;;;;;;;37.83;19.30;;;;;;;9.71;100.00;99835.47;5220411;34;35466;-86
2022/11/04 09:44:16;;;;;;;39.47;19.70;;;;;;;9.80;100.00;99831.69;5209161;34;35339;-85
2022/11/04 09:47:21;;;;;;;35.05;18.42;;;;;;;9.77;100.00;99835.59;5186641;34;33491;-90
2022/11/04 09:50:27;;;;;;;42.78;20.35;;;;;;;9.66;100.00;99832.53;5201003;34;34297;-90
2022/11/04 09:53:39;;;;;;;35.05;18.67;;;;;;;9.74;100.00;99822.50;5201939;34;34649;-85
2022/11/04 09:56:44;;;;;;;43.80;20.90;;;;;;;9.70;100.00;99825.75;5204192;34;34707;-86
2022/11/04 09:59:47;;;;;;;42.95;19.90;;;;;;;9.68;100.00;99817.87;5204651;34;33583;-86
2022/11/04 10:03:22;;;;;;;38.70;20.50;;;;;;;9.48;100.00;99812.22;5203695;34;33637;-86
2022/11/04 10:06:54;;;;;;;42.62;20.90;;;;;;;9.57;100.00;99809.44;5170298;34;35393;-86
2022/11/04 10:09:57;;;;;;;41.95;21.17;;;;;;;9.50;100.00;99812.03;5202215;34;33901;-86
2022/11/04 10:13:14;;;;;;;44.92;21.52;;;;;;;9.34;100.00;99809.53;5202719;34;33876;-86
2022/11/04 10:16:21;;;;;;;38.33;19.12;;;;;;;9.40;100.00;99801.56;5202635;34;34355;-86
2022/11/04 10:19:50;;;;;;;37.28;18.67;;;;;;;9.40;100.00;99789.97;5205237;34;34482;-86
2022/11/04 10:22:57;;;;;;;41.13;20.98;;;;;;;9.43;100.00;99778.88;5197148;34;34851;-86
2022/11/04 10:26:35;;;;;;;44.40;21.05;;;;;;;9.20;100.00;99779.78;5203210;34;34150;-86
2022/11/04 10:29:47;;;;;;;40.50;20.75;;;;;;;9.22;100.00;99772.37;5150412;34;34036;-86
2022/11/04 10:33:13;;;;;;;38.40;20.10;;;;;;;9.19;100.00;99783.47;5201932;34;34045;-86
2022/11/04 10:36:16;;;;;;;40.00;20.95;;;;;;;9.14;100.00;99764.37;5202206;34;33731;-86
2022/11/04 10:39:27;;;;;;;41.13;20.08;;;;;;;9.09;100.00;99767.63;5202166;34;34682;-86
2022/11/04 10:42:31;;;;;;;40.47;19.65;;;;;;;9.02;100.00;99769.38;5189630;34;34214;-86
2022/11/04 10:45:45;;;;;;;39.30;20.75;;;;;;;9.06;100.00;99764.47;5202110;34;34599;-87
2022/11/04 10:48:56;;;;;;;44.08;21.12;;;;;;;9.10;100.00;99760.41;5202496;34;33618;-86
2022/11/04 10:51:59;;;;;;;46.50;22.35;;;;;;;9.08;100.00;99768.62;5202303;34;33628;-86
2022/11/04 10:55:10;;;;;;;43.08;21.67;;;;;;;8.98;100.00;99761.84;5202811;34;33866;-86
2022/11/04 10:58:23;;;;;;;42.80;21.55;;;;;;;9.08;100.00;99759.75;5202861;34;33557;-86
2022/11/04 11:01:29;;;;;;;42.17;21.37;;;;;;;9.13;100.00;99751.16;5202595;34;33561;-86
2022/11/04 11:04:34;;;;;;;44.47;21.83;;;;;;;9.19;100.00;99739.69;5189760;34;33831;-87
2022/11/04 11:07:37;;;;;;;47.50;21.85;;;;;;;9.22;100.00;99740.13;5199954;34;35995;-86
2022/11/04 11:10:50;;;;;;;43.03;20.52;;;;;;;9.32;100.00;99721.88;5188355;34;33211;-86
2022/11/04 11:13:52;;;;;;;44.20;23.05;;;;;;;9.46;100.00;99720.22;5202430;34;34404;-86
2022/11/04 11:16:56;;;;;;;43.90;22.73;;;;;;;9.48;100.00;99710.13;5201989;34;33715;-90
2022/11/04 11:20:13;;;;;;;44.78;23.48;;;;;;;9.60;100.00;99707.78;5201552;34;34447;-87
2022/11/04 11:23:46;;;;;;;43.70;21.85;;;;;;;9.67;100.00;99713.22;5201816;34;35290;-87
2022/11/04 11:26:54;;;;;;;45.65;21.90;;;;;;;9.84;100.00;99709.31;5200094;34;34348;-86
2022/11/04 11:29:57;;;;;;;45.80;21.60;;;;;;;9.90;100.00;99708.53;5201829;34;34484;-87
2022/11/04 11:33:16;;;;;;;44.78;21.87;;;;;;;9.95;100.00;99710.69;5191829;34;33995;-86
2022/11/04 11:36:37;;;;;;;;;;;;;;;9.95;100.00;99702.59;5173238;34;33348;-87
2022/11/04 11:39:42;;;;;;;42.78;22.37;;;;;;;9.94;100.00;99714.38;5184390;34;32100;-86
2022/11/04 11:42:45;;;;;;;37.60;21.80;;;;;;;9.97;100.00;99708.59;5202002;34;35415;-86
2022/11/04 11:45:49;;;;;;;39.80;21.00;;;;;;;10.17;100.00;99704.25;5201302;34;35363;-86
2022/11/04 11:48:59;;;;;;;49.13;23.70;;;;;;;10.20;100.00;99698.50;5200323;34;33973;-86
2022/11/04 11:52:31;;;;;;;39.70;21.05;;;;;;;10.25;100.00;99689.88;5201038;34;33846;-86
2022/11/04 11:55:36;;;;;;;44.75;22.27;;;;;;;10.47;100.00;99698.81;5192054;34;32871;-86
2022/11/04 11:58:48;;;;;;;41.75;22.60;;;;;;;10.53;100.00;99695.34;5203114;34;34187;-86
2022/11/04 12:02:11;;;;;;;40.42;21.95;;;;;;;10.49;100.00;99690.53;5200013;34;33602;-86
2022/11/04 12:05:15;;;;;;;41.90;22.77;;;;;;;10.51;100.00;99689.31;5191831;34;32605;-86
2022/11/04 12:09:02;;;;;;;45.20;23.12;;;;;;;10.46;100.00;99667.50;5202760;34;34414;-88
2022/11/04 12:12:46;;;;;;;40.25;21.73;;;;;;;10.50;100.00;99659.88;5206787;34;34749;-87
2022/11/04 12:16:05;;;;;;;43.05;22.45;;;;;;;10.57;100.00;99655.41;5203950;34;34046;-87
2022/11/04 12:19:25;;;;;;;44.70;23.75;;;;;;;10.76;100.00;99645.78;5205167;34;34019;-87
2022/11/04 12:22:38;;;;;;;;;;;;;;;10.72;100.00;99637.28;5203224;34;34576;-87
2022/11/04 12:26:11;;;;;;;39.38;20.45;;;;;;;10.76;100.00;99629.63;5202890;34;34561;-91
2022/11/04 12:29:36;;;;;;;42.47;21.77;;;;;;;10.84;100.00;99627.63;5205859;34;33960;-87
2022/11/04 12:32:57;;;;;;;41.53;21.70;;;;;;;10.99;100.00;99626.66;5192132;34;33738;-87
2022/11/04 12:36:12;;;;;;;54.92;24.05;;;;;;;11.13;100.00;99620.31;5190239;34;32634;-87
2022/11/04 12:39:28;;;;;;;43.78;23.25;;;;;;;11.11;100.00;99609.75;5194552;34;33056;-87
2022/11/04 12:43:04;;;;;;;47.53;23.17;;;;;;;11.07;100.00;99592.31;5191850;34;32413;-87
2022/11/04 12:46:25;;;;;;;43.75;22.92;;;;;;;11.20;100.00;99580.75;5191521;34;33076;-87
2022/11/04 12:49:58;;;;;;;45.92;23.17;;;;;;;11.42;100.00;99580.63;5207061;34;34900;-87
2022/11/04 12:53:28;;;;;;;46.60;23.15;;;;;;;11.24;100.00;99578.50;5206036;34;34140;-87
2022/11/04 12:56:36;;;;;;;;;;;;;;;11.31;100.00;99587.44;5205123;34;33445;-87
2022/11/04 12:59:42;;;;;;;43.13;21.90;;;;;;;11.39;100.00;99581.87;5203416;34;33863;-87
2022/11/04 13:02:50;;;;;;;43.95;23.05;;;;;;;11.45;100.00;99577.53;5181011;34;32613;-87
2022/11/04 13:05:59;;;;;;;41.15;21.17;;;;;;;11.44;100.00;99573.19;5178613;34;33578;-87
2022/11/04 13:09:12;;;;;;;46.88;23.50;;;;;;;11.44;100.00;99576.72;5180684;34;32773;-87
2022/11/04 13:12:20;;;;;;;41.33;22.37;;;;;;;11.49;100.00;99568.81;5186231;34;33606;-87
2022/11/04 13:15:29;;;;;;;43.90;22.30;;;;;;;11.43;100.00;99564.25;5188903;34;34120;-87
2022/11/04 13:18:38;;;;;;;41.88;22.73;;;;;;;11.57;100.00;99565.94;5171913;34;33086;-87
2022/11/04 13:21:42;;;;;;;40.60;22.05;;;;;;;11.65;100.00;99561.41;5170921;34;32481;-87
2022/11/04 13:24:50;;;;;;;40.15;21.02;;;;;;;11.53;100.00;99571.97;5184036;34;33596;-87
2022/11/04 13:27:52;;;;;;;44.13;23.05;;;;;;;11.63;100.00;99568.84;5187738;34;33582;-87
2022/11/04 13:31:21;;;;;;;48.78;22.40;;;;;;;11.62;100.00;99564.50;5190539;34;34087;-87
2022/11/04 13:34:53;;;;;;;47.30;22.10;;;;;;;11.69;100.00;99549.16;5169955;34;32980;-90
2022/11/04 13:38:11;;;;;;;44.05;21.85;;;;;;;11.65;100.00;99554.16;5195478;34;33678;-87
2022/11/04 13:41:39;;;;;;;43.35;22.83;;;;;;;11.69;100.00;99554.56;5186254;34;33645;-87
2022/11/04 13:44:52;;;;;;;45.70;23.85;;;;;;;11.58;100.00;99555.97;5194589;34;33619;-87
2022/11/04 13:47:57;;;;;;;41.58;21.80;;;;;;;11.48;100.00;99553.69;5196115;34;33932;-87
2022/11/04 13:51:04;;;;;;;40.10;21.55;;;;;;;11.53;100.00;99550.41;5184947;34;34560;-87
2022/11/04 13:54:40;;;;;;;41.58;22.23;;;;;;;11.52;100.00;99552.25;5176935;34;34850;-87
2022/11/04 13:58:16;;;;;;;40.85;21.92;;;;;;;11.52;100.00;99546.03;5163008;34;33377;-87
2022/11/04 14:01:22;;;;;;;41.72;21.45;;;;;;;11.42;100.00;99546.44;5197159;34;34347;-91
2022/11/04 14:04:29;;;;;;;51.50;22.25;;;;;;;11.36;100.00;99549.94;5202984;34;34260;-91
2022/11/04 14:07:58;;;;;;;53.15;22.62;;;;;;;11.38;100.00;99549.72;5182762;34;33526;-88
2022/11/04 14:11:04;;;;;;;45.70;20.80;;;;;;;11.40;100.00;99543.09;5199982;34;35165;-87
2022/11/04 14:14:18;;;;;;;68.12;23.70;;;;;;;11.34;100.00;99533.97;5190993;34;33003;-87
2022/11/04 14:17:33;;;;;;;54.53;24.48;;;;;;;11.34;100.00;99538.53;5205016;34;34316;-87
2022/11/04 14:20:36;;;;;;;56.50;22.90;;;;;;;11.30;100.00;99537.28;5203562;34;34462;-87
2022/11/04 14:23:45;;;;;;;57.88;23.65;;;;;;;11.29;100.00;99536.44;5203176;34;34793;-87
2022/11/04 14:26:49;;;;;;;48.57;22.13;;;;;;;11.24;100.00;99535.41;5202590;34;33179;-87
2022/11/04 14:29:53;;;;;;;52.17;22.62;;;;;;;11.27;100.00;99529.59;5190052;34;32664;-87
2022/11/04 14:32:59;;;;;;;41.65;20.80;;;;;;;11.25;100.00;99526.28;5191103;34;32624;-88
2022/11/04 14:36:21;;;;;;;43.25;22.33;;;;;;;11.22;100.00;99518.59;5203449;34;35343;-88
2022/11/04 14:39:30;;;;;;;38.90;21.90;;;;;;;11.11;100.00;99507.38;5190306;34;32862;-86
2022/11/04 14:42:49;;;;;;;44.63;21.52;;;;;;;11.06;100.00;99511.72;5203665;34;33866;-86
2022/11/04 14:45:54;;;;;;;39.53;20.95;;;;;;;11.03;100.00;99509.44;5201675;34;32557;-84
2022/11/04 14:49:00;;;;;;;37.10;20.65;;;;;;;11.02;100.00;99503.19;5201940;34;36326;-84
2022/11/04 14:52:13;;;;;;;46.22;22.08;;;;;;;10.99;100.00;99503.59;5210895;34;33886;-84
2022/11/04 14:55:20;;;;;;;46.37;21.70;;;;;;;11.01;100.00;99501.53;5215360;34;35369;-89
2022/11/04 14:58:26;;;;;;;39.28;21.33;;;;;;;11.08;100.00;99502.38;5214047;34;34437;-85
2022/11/04 15:01:31;;;;;;;40.42;21.48;;;;;;;11.10;100.00;99496.81;5203094;34;33799;-86
2022/11/04 15:04:36;;;;;;;42.62;22.33;;;;;;;11.13;100.00;99483.75;5188818;34;32550;-85
2022/11/04 15:07:40;;;;;;;42.50;21.98;;;;;;;11.15;100.00;99482.75;5188216;34;32315;-85
2022/11/04 15:10:48;;;;;;;42.97;20.88;;;;;;;11.10;100.00;99486.84;5201940;34;34861;-85
2022/11/04 15:13:58;;;;;;;39.22;21.35;;;;;;;11.09;100.00;99495.16;5202448;34;33813;-85
2022/11/04 15:17:01;;;;;;;37.42;21.25;;;;;;;11.06;100.00;99492.88;5190246;34;32977;-87
2022/11/04 15:20:05;;;;;;;40.28;20.90;;;;;;;11.06;100.00;99493.69;5199195;34;33934;-86
2022/11/04 15:23:13;;;;;;;41.80;21.30;;;;;;;11.07;100.00;99492.66;5208868;34;32497;-86
2022/11/04 15:26:28;;;;;;;42.17;22.23;;;;;;;11.06;100.00;99490.16;5199286;34;32555;-85
2022/11/04 15:29:32;;;;;;;41.08;22.17;;;;;;;10.89;100.00;99495.09;5197902;34;33025;-85
2022/11/04 15:32:35;;;;;;;40.15;21.35;;;;;;;10.80;100.00;99499.81;5209151;34;35380;-85
2022/11/04 15:35:42;;;;;;;39.65;22.35;;;;;;;10.75;100.00;99493.38;5189939;34;33876;-86
2022/11/04 15:39:10;;;;;;;41.20;22.15;;;;;;;10.71;100.00;99486.72;5188693;34;33670;-85
2022/11/04 15:42:38;;;;;;;42.78;21.90;;;;;;;10.66;100.00;99480.06;5185897;34;33777;-86
2022/11/04 15:45:44;;;;;;;41.50;21.87;;;;;;;10.54;100.00;99484.38;5200413;34;34559;-86
2022/11/04 15:49:18;;;;;;;35.15;19.65;;;;;;;10.39;100.00;99484.50;5201490;34;34571;-86
2022/11/04 15:52:26;;;;;;;41.72;21.15;;;;;;;10.33;100.00;99479.09;5201537;34;33955;-86
2022/11/04 15:55:31;;;;;;;39.58;20.85;;;;;;;10.24;100.00;99475.69;5188866;34;33862;-86
2022/11/04 15:58:34;;;;;;;40.33;22.13;;;;;;;10.23;100.00;99482.91;5190870;34;33840;-86
2022/11/04 16:01:44;;;;;;;41.15;21.30;;;;;;;10.19;100.00;99484.34;5189298;34;32927;-86
2022/11/04 16:05:01;;;;;;;41.95;20.85;;;;;;;10.19;100.00;99496.97;5201550;34;34498;-86
2022/11/04 16:08:20;;;;;;;39.03;20.20;;;;;;;10.19;100.00;99499.66;5201211;34;35427;-88
2022/11/04 16:11:23;;;;;;;41.92;20.60;;;;;;;10.20;100.00;99506.69;5203231;34;34117;-86
2022/11/04 16:14:28;;;;;;;42.78;21.42;;;;;;;10.23;100.00;99500.91;5189691;34;32445;-86
2022/11/04 16:17:32;;;;;;;45.97;22.65;;;;;;;10.20;100.00;99504.81;5201249;34;34985;-86
2022/11/04 16:20:35;;;;;;;41.13;22.00;;;;;;;10.14;100.00;99499.41;5201155;34;34912;-86
2022/11/04 16:23:48;;;;;;;39.20;21.05;;;;;;;10.12;100.00;99496.94;5203210;28;33865;31
2022/11/04 16:26:56;;;;;;;46.05;20.88;;;;;;;10.11;100.00;99506.00;5199614;34;33729;-86
2022/11/04 16:30:02;;;;;;;39.58;22.27;;;;;;;10.13;100.00;99509.34;5191563;34;33215;-88
2022/11/04 16:33:10;;;;;;;45.42;22.23;;;;;;;10.16;100.00;99508.13;5188706;34;32731;-86
2022/11/04 16:36:22;;;;;;;40.60;20.90;;;;;;;10.20;100.00;99509.38;5200910;34;34019;-86
2022/11/04 16:39:25;;;;;;;43.97;22.00;;;;;;;10.13;100.00;99506.66;5189957;34;33004;-86
2022/11/04 16:42:27;;;;;;;41.58;22.62;;;;;;;10.20;100.00;99509.38;5201784;34;35293;-86
2022/11/04 16:45:33;;;;;;;36.88;21.33;;;;;;;10.19;100.00;99496.97;5188412;34;33851;-86
2022/11/04 16:48:36;;;;;;;42.35;23.10;;;;;;;10.13;100.00;99497.75;5200949;34;34047;-86
2022/11/04 16:51:39;;;;;;;41.00;21.40;;;;;;;10.12;100.00;99501.44;5188954;34;32258;-86
2022/11/04 16:54:46;;;;;;;40.17;20.92;;;;;;;10.13;100.00;99501.28;5201613;34;34678;-87
2022/11/04 16:58:00;;;;;;;40.97;22.13;;;;;;;10.08;100.00;99498.34;5202065;34;35665;-86
